createdAt,value
2024-01-20T00:03:49.184Z,-0.06
2024-01-20T00:18:55.045Z,0.00
2024-01-20T00:34:00.720Z,0.06
2024-01-20T00:49:06.390Z,0.06
2024-01-20T01:04:11.920Z,0.00
2024-01-20T01:19:17.551Z,0.00
2024-01-20T09:45:07.392Z,0.13
2024-01-20T10:00:17.566Z,0.25
2024-01-20T10:15:30.989Z,0.25
2024-01-20T10:30:40.633Z,0.25
2024-01-20T10:45:55.998Z,0.13
2024-01-20T11:01:02.629Z,0.25
2024-01-20T11:16:09.072Z,0.25
2024-01-20T11:31:23.573Z,0.25
2024-01-20T11:46:29.475Z,0.25
2024-01-20T12:01:35.442Z,0.31
2024-01-20T12:16:41.363Z,0.25
2024-01-20T12:31:46.768Z,0.19
2024-01-20T12:46:52.566Z,0.19
2024-01-20T13:01:58.133Z,0.25
2024-01-20T13:17:04.151Z,0.25
2024-01-20T13:32:10.414Z,0.25
2024-01-20T13:47:16.217Z,0.25
2024-01-20T14:02:22.009Z,0.19
2024-01-20T14:17:28.692Z,0.25
2024-01-20T14:32:34.486Z,0.13
2024-01-20T14:47:40.436Z,0.13
2024-01-20T15:02:46.313Z,0.06
2024-01-20T15:17:52.200Z,-0.13
2024-01-20T15:32:58.213Z,-0.06
2024-01-20T15:48:04.102Z,-0.06
2024-01-20T16:03:10.682Z,-0.19
2024-01-20T16:18:18.497Z,-0.38
2024-01-20T16:33:24.741Z,-0.19
2024-01-20T16:48:31.028Z,-0.38
2024-01-20T17:03:36.667Z,-0.38
2024-01-20T17:18:42.685Z,-0.44
2024-01-20T17:33:49.411Z,-0.44
2024-01-20T17:48:55.711Z,-0.56
2024-01-20T18:04:01.646Z,-0.50
2024-01-20T18:19:07.790Z,-0.56
2024-01-20T18:34:13.618Z,-0.50
2024-01-20T18:49:19.821Z,-0.56
2024-01-20T19:04:25.992Z,-0.63
2024-01-20T19:19:32.857Z,-0.69
2024-01-20T19:34:38.843Z,-0.81
2024-01-20T19:49:45.656Z,-0.81
2024-01-20T20:04:51.628Z,-0.94
2024-01-20T20:19:58.009Z,-1.00
2024-01-20T20:35:03.637Z,-1.19
2024-01-20T20:50:09.754Z,-1.06
2024-01-20T21:05:17.690Z,-0.94
2024-01-20T21:20:23.453Z,-0.88
2024-01-20T21:35:29.249Z,-0.94
2024-01-20T21:50:35.051Z,-0.88
2024-01-20T22:05:41.350Z,-0.81
2024-01-20T22:20:47.196Z,-0.88
2024-01-20T22:35:52.855Z,-0.94
2024-01-20T22:50:58.665Z,-0.94
2024-01-20T23:06:04.302Z,-0.88
2024-01-20T23:21:10.032Z,-0.88
2024-01-20T23:36:15.763Z,-0.88
2024-01-20T23:51:21.243Z,-0.88
